Exeter International Airport

Airport
ICAO code: 
EGTE
IATA Code: 
EXT
Summary
ICAO Region: 
EUR
Territory: 
Location: 
Clyst Honiton, Devon, England
Serving: 
Exeter
Elevation: 
102 ft
Coordinates: 
Aerial View: 
50° 44' 5" N, 3° 24' 49" W
Metar
Observation
EGTE 041120Z 28013KT 9999 VCSH SCT030CB 07/03 Q1003
Station
Exeter Airport
Date/Time
2021-12-04 11:20:00
Wind direction
280°
Wind speed
13 kts
Lowest cloud amount
scattered clouds
Temperature
7°C
Dew point
3°C
Humidity
75%
QNH
1003 hPa
Weather condition
in vicinity: showers

Description

Relatively small regional and international airport serving the city of Exeter and the south-west of England.

Climatology

Temperate Marine climate/Oceanic climate (Köppen climate classification Cfb). Moderately cool summer and comparatively warm winter with a temperature range of only 14°C. Prevailing south-westerly winds from the Atlantic Ocean.

Runways

Designator Length Width Surface Rops
13/31 1339 46 ASP No/No
8/26 2083 46 ASP Yes/Yes
Airport map: 
Aerial View: 

Accidents and Serious Incidents at or in the vicinity of EGTE

SKYbrary Partners:

Safety knowledge contributed by: